KEET

Shelby County Airport

Alabaster, Alabama, USA
METAR KEET 191453Z AUTO 00000KT 7SM CLR 10/08 A3019 RMK AO2 SLP224 T01000083 53007
Observed Flight Rules
Nov-19 @ 14:53 UTC (49 minutes ago) Visual Flight Rules
Visibility Clouds
7 miles
  • Clear skies
Temperatures Readings
Current 10°C / 50°F
Dewpoint 8°C / 46°F
Humidity 88%
Altimeter 30.19" Hg
Pressure 1022.4 hPa
Elevation 173
METAR KEET 191453Z AUTO 00000KT 7SM CLR 10/08 A3019 RMK AO2 SLP224 T01000083 53007
Observed Flight Rules
Nov-19 @ 14:53 UTC
(49 minutes ago)
VFR
Clouds
  • Clear skies
Temperature Dewpoint
10°C / 50°F 8°C / 46°F
Humidity Altimeter Pressure
88% 30.19" Hg 1022.4 hPa